sensor_id;sensor_type;location;lat;lon;timestamp;pressure;altitude;pressure_sealevel;temperature;humidity
60345;BME280;46188;52.324;8.032;2024-02-14T00:00:13;100360.72;;;6.91;100.00
60345;BME280;46188;52.324;8.032;2024-02-14T00:02:43;100347.59;;;6.91;100.00
60345;BME280;46188;52.324;8.032;2024-02-14T00:05:09;100344.09;;;6.91;100.00
60345;BME280;46188;52.324;8.032;2024-02-14T00:07:38;100340.63;;;6.92;100.00
60345;BME280;46188;52.324;8.032;2024-02-14T00:10:05;100344.16;;;6.92;100.00
60345;BME280;46188;52.324;8.032;2024-02-14T00:12:31;100337.13;;;6.91;100.00
60345;BME280;46188;52.324;8.032;2024-02-14T00:14:56;100330.13;;;6.92;100.00
60345;BME280;46188;52.324;8.032;2024-02-14T00:17:22;100328.44;;;6.92;100.00
60345;BME280;46188;52.324;8.032;2024-02-14T00:19:48;100333.69;;;6.94;100.00
60345;BME280;46188;52.324;8.032;2024-02-14T00:22:13;100330.19;;;6.93;100.00
60345;BME280;46188;52.324;8.032;2024-02-14T00:24:39;100310.13;;;6.94;100.00
60345;BME280;46188;52.324;8.032;2024-02-14T00:27:04;100320.63;;;6.95;100.00
60345;BME280;46188;52.324;8.032;2024-02-14T00:29:29;100319.72;;;6.95;100.00
60345;BME280;46188;52.324;8.032;2024-02-14T00:31:55;100323.25;;;6.95;100.00
60345;BME280;46188;52.324;8.032;2024-02-14T00:34:20;100317.16;;;6.96;100.00
60345;BME280;46188;52.324;8.032;2024-02-14T00:36:46;100309.28;;;6.96;100.00
60345;BME280;46188;52.324;8.032;2024-02-14T00:39:11;100310.19;;;6.97;100.00
60345;BME280;46188;52.324;8.032;2024-02-14T00:41:37;100317.19;;;6.98;100.00
60345;BME280;46188;52.324;8.032;2024-02-14T00:44:02;100316.31;;;6.97;100.00
60345;BME280;46188;52.324;8.032;2024-02-14T00:46:28;100310.22;;;6.98;100.00
60345;BME280;46188;52.324;8.032;2024-02-14T00:48:54;100294.50;;;6.98;100.00
60345;BME280;46188;52.324;8.032;2024-02-14T00:51:19;100291.88;;;6.98;100.00
60345;BME280;46188;52.324;8.032;2024-02-14T00:53:45;100288.34;;;6.98;100.00
60345;BME280;46188;52.324;8.032;2024-02-14T00:56:10;100288.34;;;6.98;100.00
60345;BME280;46188;52.324;8.032;2024-02-14T00:58:35;100291.88;;;6.98;100.00
60345;BME280;46188;52.324;8.032;2024-02-14T01:01:01;100292.72;;;6.97;100.00
60345;BME280;46188;52.324;8.032;2024-02-14T01:03:26;100282.25;;;6.97;100.00
60345;BME280;46188;52.324;8.032;2024-02-14T01:05:51;100285.72;;;6.98;100.00
60345;BME280;46188;52.324;8.032;2024-02-14T01:08:16;100275.22;;;6.96;100.00
60345;BME280;46188;52.324;8.032;2024-02-14T01:10:42;100276.97;;;6.96;100.00
60345;BME280;46188;52.324;8.032;2024-02-14T01:13:07;100272.59;;;6.96;100.00
60345;BME280;46188;52.324;8.032;2024-02-14T01:15:32;100276.94;;;6.94;100.00
60345;BME280;46188;52.324;8.032;2024-02-14T01:18:00;100272.53;;;6.93;100.00
60345;BME280;46188;52.324;8.032;2024-02-14T01:20:26;100269.88;;;6.92;100.00
60345;BME280;46188;52.324;8.032;2024-02-14T01:22:51;100263.75;;;6.91;100.00
60345;BME280;46188;52.324;8.032;2024-02-14T01:25:16;100265.47;;;6.89;100.00
60345;BME280;46188;52.324;8.032;2024-02-14T01:27:41;100256.72;;;6.89;100.00
60345;BME280;46188;52.324;8.032;2024-02-14T01:30:08;100265.41;;;6.88;100.00
60345;BME280;46188;52.324;8.032;2024-02-14T01:32:34;100254.91;;;6.86;100.00
60345;BME280;46188;52.324;8.032;2024-02-14T01:34:59;100262.75;;;6.86;100.00
60345;BME280;46188;52.324;8.032;2024-02-14T01:37:25;100245.25;;;6.83;100.00
60345;BME280;46188;52.324;8.032;2024-02-14T01:39:51;100253.09;;;6.82;100.00
60345;BME280;46188;52.324;8.032;2024-02-14T01:42:16;100239.97;;;6.82;100.00
60345;BME280;46188;52.324;8.032;2024-02-14T01:44:41;100228.56;;;6.80;100.00
60345;BME280;46188;52.324;8.032;2024-02-14T01:47:08;100229.47;;;6.80;100.00
60345;BME280;46188;52.324;8.032;2024-02-14T01:49:34;100221.59;;;6.80;100.00
60345;BME280;46188;52.324;8.032;2024-02-14T01:52:02;100219.84;;;6.81;100.00
60345;BME280;46188;52.324;8.032;2024-02-14T01:54:29;100225.94;;;6.80;100.00
60345;BME280;46188;52.324;8.032;2024-02-14T01:56:56;100230.34;;;6.81;100.00
60345;BME280;46188;52.324;8.032;2024-02-14T01:59:21;100213.75;;;6.80;100.00
60345;BME280;46188;52.324;8.032;2024-02-14T02:01:48;100225.97;;;6.81;100.00
60345;BME280;46188;52.324;8.032;2024-02-14T02:04:13;100210.25;;;6.81;100.00
60345;BME280;46188;52.324;8.032;2024-02-14T02:06:39;100216.41;;;6.82;100.00
60345;BME280;46188;52.324;8.032;2024-02-14T02:09:06;100228.63;;;6.83;100.00
60345;BME280;46188;52.324;8.032;2024-02-14T02:11:42;100219.94;;;6.84;100.00
60345;BME280;46188;52.324;8.032;2024-02-14T02:14:07;100201.63;;;6.86;100.00
60345;BME280;46188;52.324;8.032;2024-02-14T02:16:33;100209.53;;;6.87;100.00
60345;BME280;46188;52.324;8.032;2024-02-14T02:18:58;100206.03;;;6.88;100.00
60345;BME280;46188;52.324;8.032;2024-02-14T02:21:24;100185.97;;;6.89;100.00
60345;BME280;46188;52.324;8.032;2024-02-14T02:23:49;100193.84;;;6.89;100.00
60345;BME280;46188;52.324;8.032;2024-02-14T02:26:14;100189.50;;;6.91;100.00
60345;BME280;46188;52.324;8.032;2024-02-14T02:28:40;100187.75;;;6.91;100.00
60345;BME280;46188;52.324;8.032;2024-02-14T02:31:05;100189.53;;;6.92;100.00
60345;BME280;46188;52.324;8.032;2024-02-14T02:33:30;100180.78;;;6.92;100.00
60345;BME280;46188;52.324;8.032;2024-02-14T02:35:56;100172.94;;;6.93;100.00
60345;BME280;46188;52.324;8.032;2024-02-14T02:38:21;100176.47;;;6.94;100.00
60345;BME280;46188;52.324;8.032;2024-02-14T02:40:47;100169.47;;;6.94;100.00
60345;BME280;46188;52.324;8.032;2024-02-14T02:43:13;100170.34;;;6.95;100.00
60345;BME280;46188;52.324;8.032;2024-02-14T02:45:38;100176.50;;;6.95;100.00
60345;BME280;46188;52.324;8.032;2024-02-14T02:48:04;100174.72;;;6.94;100.00
60345;BME280;46188;52.324;8.032;2024-02-14T02:50:29;100173.00;;;6.96;100.00
60345;BME280;46188;52.324;8.032;2024-02-14T02:52:55;100163.41;;;6.95;100.00
60345;BME280;46188;52.324;8.032;2024-02-14T02:55:20;100166.06;;;6.97;100.00
60345;BME280;46188;52.324;8.032;2024-02-14T02:57:46;100161.69;;;6.97;100.00
60345;BME280;46188;52.324;8.032;2024-02-14T03:00:11;100161.69;;;6.97;100.00
60345;BME280;46188;52.324;8.032;2024-02-14T03:02:38;100155.59;;;6.98;100.00
60345;BME280;46188;52.324;8.032;2024-02-14T03:05:06;100153.00;;;6.98;100.00
60345;BME280;46188;52.324;8.032;2024-02-14T03:07:35;100156.47;;;6.99;100.00
60345;BME280;46188;52.324;8.032;2024-02-14T03:10:00;100162.59;;;6.99;100.00
60345;BME280;46188;52.324;8.032;2024-02-14T03:12:26;100157.34;;;6.99;100.00
60345;BME280;46188;52.324;8.032;2024-02-14T03:14:53;100151.25;;;6.99;100.00
60345;BME280;46188;52.324;8.032;2024-02-14T03:17:19;100157.34;;;6.99;100.00
60345;BME280;46188;52.324;8.032;2024-02-14T03:19:44;100152.13;;;6.99;100.00
60345;BME280;46188;52.324;8.032;2024-02-14T03:22:09;100161.72;;;6.99;100.00
60345;BME280;46188;52.324;8.032;2024-02-14T03:24:35;100157.34;;;6.99;100.00
60345;BME280;46188;52.324;8.032;2024-02-14T03:27:03;100157.34;;;6.99;100.00
60345;BME280;46188;52.324;8.032;2024-02-14T03:29:32;100153.00;;;6.98;100.00
60345;BME280;46188;52.324;8.032;2024-02-14T03:31:58;100141.63;;;6.99;100.00
60345;BME280;46188;52.324;8.032;2024-02-14T03:34:24;100155.63;;;7.01;100.00
60345;BME280;46188;52.324;8.032;2024-02-14T03:36:50;100146.06;;;7.02;100.00
60345;BME280;46188;52.324;8.032;2024-02-14T03:39:15;100141.69;;;7.02;100.00
60345;BME280;46188;52.324;8.032;2024-02-14T03:41:42;100152.19;;;7.02;100.00
60345;BME280;46188;52.324;8.032;2024-02-14T03:44:07;100150.44;;;7.03;100.00
60345;BME280;46188;52.324;8.032;2024-02-14T03:46:34;100146.06;;;7.02;100.00
60345;BME280;46188;52.324;8.032;2024-02-14T03:49:00;100146.06;;;7.02;100.00
60345;BME280;46188;52.324;8.032;2024-02-14T03:51:25;100143.47;;;7.04;100.00
60345;BME280;46188;52.324;8.032;2024-02-14T03:53:51;100136.50;;;7.04;100.00
60345;BME280;46188;52.324;8.032;2024-02-14T03:56:16;100141.72;;;7.04;100.00
60345;BME280;46188;52.324;8.032;2024-02-14T03:58:42;100135.66;;;7.05;100.00
60345;BME280;46188;52.324;8.032;2024-02-14T04:01:07;100138.31;;;7.07;100.00
60345;BME280;46188;52.324;8.032;2024-02-14T04:03:33;100133.06;;;7.08;100.00
60345;BME280;46188;52.324;8.032;2024-02-14T04:05:58;100140.91;;;7.08;100.00
60345;BME280;46188;52.324;8.032;2024-02-14T04:08:24;100133.09;;;7.10;100.00
60345;BME280;46188;52.324;8.032;2024-02-14T04:10:49;100128.75;;;7.10;100.00
60345;BME280;46188;52.324;8.032;2024-02-14T04:13:19;100146.22;;;7.11;100.00
60345;BME280;46188;52.324;8.032;2024-02-14T04:15:44;100140.16;;;7.12;100.00
60345;BME280;46188;52.324;8.032;2024-02-14T04:18:09;100126.19;;;7.13;100.00
60345;BME280;46188;52.324;8.032;2024-02-14T04:20:35;100139.31;;;7.13;100.00
60345;BME280;46188;52.324;8.032;2024-02-14T04:23:00;100148.03;;;7.14;100.00
60345;BME280;46188;52.324;8.032;2024-02-14T04:25:25;100143.69;;;7.16;100.00
60345;BME280;46188;52.324;8.032;2024-02-14T04:27:51;100144.56;;;7.16;100.00
60345;BME280;46188;52.324;8.032;2024-02-14T04:30:16;100144.56;;;7.16;100.00
60345;BME280;46188;52.324;8.032;2024-02-14T04:32:41;100154.22;;;7.17;100.00
60345;BME280;46188;52.324;8.032;2024-02-14T04:35:09;100152.47;;;7.18;100.00
60345;BME280;46188;52.324;8.032;2024-02-14T04:37:34;100140.28;;;7.18;100.00
60345;BME280;46188;52.324;8.032;2024-02-14T04:39:59;100143.81;;;7.20;100.00
60345;BME280;46188;52.324;8.032;2024-02-14T04:42:24;100140.34;;;7.22;100.00
60345;BME280;46188;52.324;8.032;2024-02-14T04:44:50;100124.59;;;7.23;100.00
60345;BME280;46188;52.324;8.032;2024-02-14T04:47:15;100153.44;;;7.23;100.00
60345;BME280;46188;52.324;8.032;2024-02-14T04:49:40;100140.38;;;7.25;100.00
60345;BME280;46188;52.324;8.032;2024-02-14T04:52:05;100143.91;;;7.25;100.00
60345;BME280;46188;52.324;8.032;2024-02-14T04:54:32;100131.66;;;7.26;100.00
60345;BME280;46188;52.324;8.032;2024-02-14T04:56:58;100143.03;;;7.26;100.00
60345;BME280;46188;52.324;8.032;2024-02-14T04:59:23;100143.06;;;7.28;100.00
60345;BME280;46188;52.324;8.032;2024-02-14T05:01:48;100146.56;;;7.30;100.00
60345;BME280;46188;52.324;8.032;2024-02-14T05:04:15;100151.81;;;7.30;100.00
60345;BME280;46188;52.324;8.032;2024-02-14T05:06:41;100141.38;;;7.31;100.00
60345;BME280;46188;52.324;8.032;2024-02-14T05:09:07;100150.13;;;7.32;100.00
60345;BME280;46188;52.324;8.032;2024-02-14T05:11:32;100146.66;;;7.34;100.00
60345;BME280;46188;52.324;8.032;2024-02-14T05:13:57;100163.34;;;7.36;100.00
60345;BME280;46188;52.324;8.032;2024-02-14T05:16:23;100163.34;;;7.36;100.00
60345;BME280;46188;52.324;8.032;2024-02-14T05:18:48;100154.59;;;7.37;100.00
60345;BME280;46188;52.324;8.032;2024-02-14T05:21:14;100152.84;;;7.38;100.00
60345;BME280;46188;52.324;8.032;2024-02-14T05:23:39;100154.63;;;7.39;100.00
60345;BME280;46188;52.324;8.032;2024-02-14T05:26:05;100152.00;;;7.39;100.00
60345;BME280;46188;52.324;8.032;2024-02-14T05:28:30;100164.31;;;7.42;100.00
60345;BME280;46188;52.324;8.032;2024-02-14T05:30:59;100173.91;;;7.41;100.00
60345;BME280;46188;52.324;8.032;2024-02-14T05:33:25;100161.69;;;7.42;100.00
60345;BME280;46188;52.324;8.032;2024-02-14T05:35:51;100163.44;;;7.43;100.00
60345;BME280;46188;52.324;8.032;2024-02-14T05:38:17;100159.09;;;7.43;100.00
60345;BME280;46188;52.324;8.032;2024-02-14T05:40:45;100168.72;;;7.44;100.00
60345;BME280;46188;52.324;8.032;2024-02-14T05:43:10;100161.72;;;7.45;100.00
60345;BME280;46188;52.324;8.032;2024-02-14T05:45:36;100165.28;;;7.47;100.00
60345;BME280;46188;52.324;8.032;2024-02-14T05:48:01;100162.69;;;7.48;100.00
60345;BME280;46188;52.324;8.032;2024-02-14T05:50:27;100164.41;;;7.48;100.00
60345;BME280;46188;52.324;8.032;2024-02-14T05:52:52;100166.22;;;7.50;100.00
60345;BME280;46188;52.324;8.032;2024-02-14T05:55:18;100174.13;;;7.52;100.00
60345;BME280;46188;52.324;8.032;2024-02-14T05:57:43;100180.25;;;7.54;100.00
60345;BME280;46188;52.324;8.032;2024-02-14T06:00:09;100175.00;;;7.54;100.00
60345;BME280;46188;52.324;8.032;2024-02-14T06:02:35;100168.94;;;7.55;100.00
60345;BME280;46188;52.324;8.032;2024-02-14T06:05:00;100180.31;;;7.57;100.00
60345;BME280;46188;52.324;8.032;2024-02-14T06:07:25;100182.94;;;7.57;100.00
60345;BME280;46188;52.324;8.032;2024-02-14T06:09:50;100181.19;;;7.57;100.00
60345;BME280;46188;52.324;8.032;2024-02-14T06:12:16;100175.97;;;7.59;100.00
60345;BME280;46188;52.324;8.032;2024-02-14T06:14:41;100181.22;;;7.59;100.00
60345;BME280;46188;52.324;8.032;2024-02-14T06:17:06;100185.63;;;7.60;100.00
60345;BME280;46188;52.324;8.032;2024-02-14T06:19:31;100185.66;;;7.62;100.00
60345;BME280;46188;52.324;8.032;2024-02-14T06:21:58;100199.66;;;7.62;100.00
60345;BME280;46188;52.324;8.032;2024-02-14T06:24:24;100186.56;;;7.64;100.00
60345;BME280;46188;52.324;8.032;2024-02-14T06:26:49;100181.31;;;7.64;100.00
60345;BME280;46188;52.324;8.032;2024-02-14T06:29:14;100198.88;;;7.66;100.00
60345;BME280;46188;52.324;8.032;2024-02-14T06:31:40;100192.75;;;7.67;100.00
60345;BME280;46188;52.324;8.032;2024-02-14T06:34:05;100206.78;;;7.69;100.00
60345;BME280;46188;52.324;8.032;2024-02-14T06:36:32;100199.84;;;7.71;100.00
60345;BME280;46188;52.324;8.032;2024-02-14T06:38:57;100201.59;;;7.72;100.00
60345;BME280;46188;52.324;8.032;2024-02-14T06:41:23;100209.44;;;7.72;100.00
60345;BME280;46188;52.324;8.032;2024-02-14T06:43:48;100221.72;;;7.73;100.00
60345;BME280;46188;52.324;8.032;2024-02-14T06:46:14;100212.09;;;7.74;100.00
60345;BME280;46188;52.324;8.032;2024-02-14T06:48:39;100207.75;;;7.76;100.00
60345;BME280;46188;52.324;8.032;2024-02-14T06:51:06;100212.19;;;7.79;100.00
60345;BME280;46188;52.324;8.032;2024-02-14T06:53:32;100218.34;;;7.81;100.00
60345;BME280;46188;52.324;8.032;2024-02-14T06:55:57;100226.25;;;7.82;100.00
60345;BME280;46188;52.324;8.032;2024-02-14T06:58:22;100228.91;;;7.84;100.00
60345;BME280;46188;52.324;8.032;2024-02-14T07:00:47;100234.19;;;7.85;100.00
60345;BME280;46188;52.324;8.032;2024-02-14T07:03:13;100233.34;;;7.86;100.00
60345;BME280;46188;52.324;8.032;2024-02-14T07:05:38;100238.66;;;7.89;100.00
60345;BME280;46188;52.324;8.032;2024-02-14T07:08:04;100248.31;;;7.92;100.00
60345;BME280;46188;52.324;8.032;2024-02-14T07:10:30;100246.59;;;7.94;100.00
60345;BME280;46188;52.324;8.032;2024-02-14T07:12:55;100251.00;;;7.97;100.00
60345;BME280;46188;52.324;8.032;2024-02-14T07:15:20;100251.91;;;7.99;100.00
60345;BME280;46188;52.324;8.032;2024-02-14T07:17:45;100260.72;;;8.02;100.00
60345;BME280;46188;52.324;8.032;2024-02-14T07:20:11;100252.00;;;8.03;100.00
60345;BME280;46188;52.324;8.032;2024-02-14T07:22:36;100260.78;;;8.05;100.00
60345;BME280;46188;52.324;8.032;2024-02-14T07:25:02;100253.81;;;8.07;100.00
60345;BME280;46188;52.324;8.032;2024-02-14T07:27:30;100261.72;;;8.09;100.00
60345;BME280;46188;52.324;8.032;2024-02-14T07:29:55;100264.38;;;8.10;100.00
60345;BME280;46188;52.324;8.032;2024-02-14T07:32:20;100274.94;;;8.13;100.00
60345;BME280;46188;52.324;8.032;2024-02-14T07:34:45;100267.09;;;8.15;100.00
60345;BME280;46188;52.324;8.032;2024-02-14T07:37:11;100271.50;;;8.16;100.00
60345;BME280;46188;52.324;8.032;2024-02-14T07:39:36;100273.28;;;8.19;100.00
60345;BME280;46188;52.324;8.032;2024-02-14T07:42:02;100266.28;;;8.21;100.00
60345;BME280;46188;52.324;8.032;2024-02-14T07:44:27;100275.97;;;8.23;100.00
60345;BME280;46188;52.324;8.032;2024-02-14T07:46:53;100272.50;;;8.24;100.00
60345;BME280;46188;52.324;8.032;2024-02-14T07:49:18;100280.41;;;8.26;100.00
60345;BME280;46188;52.324;8.032;2024-02-14T07:51:44;100277.78;;;8.26;100.00
60345;BME280;46188;52.324;8.032;2024-02-14T07:54:09;100283.03;;;8.27;100.00
60345;BME280;46188;52.324;8.032;2024-02-14T07:56:35;100286.59;;;8.29;100.00
60345;BME280;46188;52.324;8.032;2024-02-14T07:59:00;100285.69;;;8.29;100.00
60345;BME280;46188;52.324;8.032;2024-02-14T08:01:25;100291.00;;;8.32;100.00
60345;BME280;46188;52.324;8.032;2024-02-14T08:03:50;100287.53;;;8.33;100.00
60345;BME280;46188;52.324;8.032;2024-02-14T08:06:16;100294.56;;;8.36;100.00
60345;BME280;46188;52.324;8.032;2024-02-14T08:08:41;100300.72;;;8.36;100.00
60345;BME280;46188;52.324;8.032;2024-02-14T08:11:08;100292.84;;;8.36;100.00
60345;BME280;46188;52.324;8.032;2024-02-14T08:13:34;100298.16;;;8.39;100.00
60345;BME280;46188;52.324;8.032;2024-02-14T08:15:59;100306.06;;;8.41;100.00
60345;BME280;46188;52.324;8.032;2024-02-14T08:18:25;100313.06;;;8.42;100.00
60345;BME280;46188;52.324;8.032;2024-02-14T08:20:52;100313.16;;;8.45;100.00
60345;BME280;46188;52.324;8.032;2024-02-14T08:23:17;100303.50;;;8.44;100.00
60345;BME280;46188;52.324;8.032;2024-02-14T08:25:42;100311.44;;;8.47;100.00
60345;BME280;46188;52.324;8.032;2024-02-14T08:28:07;100317.63;;;8.49;100.00
60345;BME280;46188;52.324;8.032;2024-02-14T08:30:33;100319.41;;;8.52;100.00
60345;BME280;46188;52.324;8.032;2024-02-14T08:32:59;100327.31;;;8.53;100.00
60345;BME280;46188;52.324;8.032;2024-02-14T08:35:24;100324.72;;;8.55;100.00
60345;BME280;46188;52.324;8.032;2024-02-14T08:37:49;100320.31;;;8.55;100.00
60345;BME280;46188;52.324;8.032;2024-02-14T08:40:15;100325.63;;;8.57;100.00
60345;BME280;46188;52.324;8.032;2024-02-14T08:42:40;100324.75;;;8.58;100.00
60345;BME280;46188;52.324;8.032;2024-02-14T08:45:05;100328.28;;;8.60;100.00
60345;BME280;46188;52.324;8.032;2024-02-14T08:47:31;100328.28;;;8.60;100.00
60345;BME280;46188;52.324;8.032;2024-02-14T08:49:56;100325.69;;;8.61;100.00
60345;BME280;46188;52.324;8.032;2024-02-14T08:52:21;100326.56;;;8.62;100.00
60345;BME280;46188;52.324;8.032;2024-02-14T08:54:46;100333.59;;;8.63;100.00
60345;BME280;46188;52.324;8.032;2024-02-14T08:57:12;100339.72;;;8.63;100.00
60345;BME280;46188;52.324;8.032;2024-02-14T08:59:37;100337.13;;;8.65;100.00
60345;BME280;46188;52.324;8.032;2024-02-14T09:02:03;100335.38;;;8.65;100.00
60345;BME280;46188;52.324;8.032;2024-02-14T09:04:28;100342.41;;;8.66;100.00
60345;BME280;46188;52.324;8.032;2024-02-14T09:06:54;100335.41;;;8.67;100.00
60345;BME280;46188;52.324;8.032;2024-02-14T09:09:19;100341.56;;;8.67;100.00
60345;BME280;46188;52.324;8.032;2024-02-14T09:11:45;100338.97;;;8.69;100.00
60345;BME280;46188;52.324;8.032;2024-02-14T09:14:12;100342.50;;;8.71;100.00
60345;BME280;46188;52.324;8.032;2024-02-14T09:16:37;100338.13;;;8.72;100.00
60345;BME280;46188;52.324;8.032;2024-02-14T09:19:02;100348.66;;;8.73;100.00
60345;BME280;46188;52.324;8.032;2024-02-14T09:21:30;100349.56;;;8.75;100.00
60345;BME280;46188;52.324;8.032;2024-02-14T09:23:56;100352.22;;;8.77;100.00
60345;BME280;46188;52.324;8.032;2024-02-14T09:26:21;100349.63;;;8.78;100.00
60345;BME280;46188;52.324;8.032;2024-02-14T09:28:46;100349.66;;;8.80;100.00
60345;BME280;46188;52.324;8.032;2024-02-14T09:31:11;100340.91;;;8.81;100.00
60345;BME280;46188;52.324;8.032;2024-02-14T09:33:38;100356.72;;;8.82;100.00
60345;BME280;46188;52.324;8.032;2024-02-14T09:36:04;100354.06;;;8.82;100.00
60345;BME280;46188;52.324;8.032;2024-02-14T09:38:30;100359.38;;;8.84;100.00
60345;BME280;46188;52.324;8.032;2024-02-14T09:41:41;100351.50;;;8.85;100.00
60345;BME280;46188;52.324;8.032;2024-02-14T09:43:48;100353.25;;;8.86;100.00
60345;BME280;46188;52.324;8.032;2024-02-14T09:46:14;100369.03;;;8.86;100.00
60345;BME280;46188;52.324;8.032;2024-02-14T09:48:44;100358.50;;;8.86;100.00
60345;BME280;46188;52.324;8.032;2024-02-14T09:51:11;100353.25;;;8.86;100.00
60345;BME280;46188;52.324;8.032;2024-02-14T09:53:40;100362.91;;;8.88;100.00
60345;BME280;46188;52.324;8.032;2024-02-14T09:56:06;100352.44;;;8.89;100.00
60345;BME280;46188;52.324;8.032;2024-02-14T09:58:34;100362.09;;;8.92;100.00
60345;BME280;46188;52.324;8.032;2024-02-14T10:00:59;100358.63;;;8.93;100.00
60345;BME280;46188;52.324;8.032;2024-02-14T10:03:24;100363.03;;;8.95;100.00
60345;BME280;46188;52.324;8.032;2024-02-14T10:05:50;100358.66;;;8.96;100.00
60345;BME280;46188;52.324;8.032;2024-02-14T10:08:16;100360.44;;;8.98;100.00
60345;BME280;46188;52.324;8.032;2024-02-14T10:10:42;100363.09;;;9.00;100.00
60345;BME280;46188;52.324;8.032;2024-02-14T10:13:08;100385.06;;;9.02;100.00
60345;BME280;46188;52.324;8.032;2024-02-14T10:15:33;100375.44;;;9.02;100.00
60345;BME280;46188;52.324;8.032;2024-02-14T10:17:59;100375.44;;;9.02;100.00
60345;BME280;46188;52.324;8.032;2024-02-14T10:20:25;100389.47;;;9.04;100.00
60345;BME280;46188;52.324;8.032;2024-02-14T10:22:51;100379.81;;;9.05;100.00
60345;BME280;46188;52.324;8.032;2024-02-14T10:25:17;100378.97;;;9.06;100.00
60345;BME280;46188;52.324;8.032;2024-02-14T10:27:44;100383.38;;;9.07;100.00
60345;BME280;46188;52.324;8.032;2024-02-14T10:30:11;100382.53;;;9.10;100.00
60345;BME280;46188;52.324;8.032;2024-02-14T10:32:38;100382.53;;;9.10;100.00
60345;BME280;46188;52.324;8.032;2024-02-14T10:35:05;100397.50;;;9.12;100.00
60345;BME280;46188;52.324;8.032;2024-02-14T10:37:37;100390.47;;;9.13;100.00
60345;BME280;46188;52.324;8.032;2024-02-14T10:40:03;100391.34;;;9.13;100.00
60345;BME280;46188;52.324;8.032;2024-02-14T10:42:32;100397.53;;;9.15;100.00
60345;BME280;46188;52.324;8.032;2024-02-14T10:44:59;100395.78;;;9.16;100.00
60345;BME280;46188;52.324;8.032;2024-02-14T10:47:44;100397.56;;;9.18;100.00
60345;BME280;46188;52.324;8.032;2024-02-14T10:50:13;100397.56;;;9.18;100.00
60345;BME280;46188;52.324;8.032;2024-02-14T10:52:41;100400.22;;;9.20;100.00
60345;BME280;46188;52.324;8.032;2024-02-14T10:55:07;100395.88;;;9.20;100.00
60345;BME280;46188;52.324;8.032;2024-02-14T10:57:32;100401.13;;;9.20;100.00
60345;BME280;46188;52.324;8.032;2024-02-14T11:00:16;100395.91;;;9.23;100.00
60345;BME280;46188;52.324;8.032;2024-02-14T11:02:43;100393.28;;;9.23;100.00
60345;BME280;46188;52.324;8.032;2024-02-14T11:05:15;100395.06;;;9.26;100.00
60345;BME280;46188;52.324;8.032;2024-02-14T11:07:45;100394.22;;;9.27;100.00
60345;BME280;46188;52.324;8.032;2024-02-14T11:10:14;100403.91;;;9.31;100.00
60345;BME280;46188;52.324;8.032;2024-02-14T11:12:40;100403.06;;;9.32;100.00
60345;BME280;46188;52.324;8.032;2024-02-14T11:15:10;100391.66;;;9.33;100.00
60345;BME280;46188;52.324;8.032;2024-02-14T11:17:36;100403.09;;;9.35;100.00
60345;BME280;46188;52.324;8.032;2024-02-14T11:20:12;100403.16;;;9.38;100.00
60345;BME280;46188;52.324;8.032;2024-02-14T11:22:38;100403.16;;;9.38;100.00
60345;BME280;46188;52.324;8.032;2024-02-14T11:25:06;100413.69;;;9.41;100.00
60345;BME280;46188;52.324;8.032;2024-02-14T11:27:32;100411.09;;;9.43;100.00
60345;BME280;46188;52.324;8.032;2024-02-14T11:29:59;100418.13;;;9.44;100.00
60345;BME280;46188;52.324;8.032;2024-02-14T11:32:24;100405.00;;;9.46;100.00
60345;BME280;46188;52.324;8.032;2024-02-14T11:34:55;100419.06;;;9.48;100.00
60345;BME280;46188;52.324;8.032;2024-02-14T11:37:27;100418.22;;;9.50;100.00
60345;BME280;46188;52.324;8.032;2024-02-14T11:39:53;100421.75;;;9.52;100.00
60345;BME280;46188;52.324;8.032;2024-02-14T11:42:21;100411.25;;;9.54;100.00
60345;BME280;46188;52.324;8.032;2024-02-14T11:44:46;100413.94;;;9.57;100.00
60345;BME280;46188;52.324;8.032;2024-02-14T11:47:12;100420.97;;;9.59;100.00
60345;BME280;46188;52.324;8.032;2024-02-14T11:49:37;100406.09;;;9.60;100.00
60345;BME280;46188;52.324;8.032;2024-02-14T11:52:04;100416.66;;;9.62;100.00
60345;BME280;46188;52.324;8.032;2024-02-14T11:54:29;100413.09;;;9.61;100.00
60345;BME280;46188;52.324;8.032;2024-02-14T11:56:55;100413.13;;;9.63;100.00
60345;BME280;46188;52.324;8.032;2024-02-14T11:59:20;100417.53;;;9.64;100.00
60345;BME280;46188;52.324;8.032;2024-02-14T12:01:48;100415.81;;;9.66;100.00
60345;BME280;46188;52.324;8.032;2024-02-14T12:04:14;100422.84;;;9.67;100.00
60345;BME280;46188;52.324;8.032;2024-02-14T12:06:40;100424.59;;;9.68;100.00
60345;BME280;46188;52.324;8.032;2024-02-14T12:09:09;100422.91;;;9.70;100.00
60345;BME280;46188;52.324;8.032;2024-02-14T12:11:39;100425.53;;;9.70;100.00
60345;BME280;46188;52.324;8.032;2024-02-14T12:14:09;100424.66;;;9.71;100.00
60345;BME280;46188;52.324;8.032;2024-02-14T12:16:38;100427.28;;;9.71;100.00
60345;BME280;46188;52.324;8.032;2024-02-14T12:19:15;100420.28;;;9.70;100.00
60345;BME280;46188;52.324;8.032;2024-02-14T12:21:41;100411.50;;;9.71;100.00
60345;BME280;46188;52.324;8.032;2024-02-14T12:24:07;100414.13;;;9.71;100.00
60345;BME280;46188;52.324;8.032;2024-02-14T12:26:33;100413.25;;;9.72;100.00
60345;BME280;46188;52.324;8.032;2024-02-14T12:29:03;100415.03;;;9.74;100.00
60345;BME280;46188;52.324;8.032;2024-02-14T12:31:32;100415.06;;;9.76;100.00
60345;BME280;46188;52.324;8.032;2024-02-14T12:33:58;100412.44;;;9.77;100.00
60345;BME280;46188;52.324;8.032;2024-02-14T12:36:30;100415.97;;;9.78;100.00
60345;BME280;46188;52.324;8.032;2024-02-14T12:38:56;100405.44;;;9.79;100.00
60345;BME280;46188;52.324;8.032;2024-02-14T12:41:21;100407.22;;;9.79;100.00
60345;BME280;46188;52.324;8.032;2024-02-14T12:43:52;100416.00;;;9.81;100.00